sensor_id;sensor_type;location;lat;lon;timestamp;P1;durP1;ratioP1;P2;durP2;ratioP2
21593;SDS011;10959;51.328;7.322;2023-12-22T00:01:02;6.10;;;1.40;;
21593;SDS011;10959;51.328;7.322;2023-12-22T00:03:35;8.30;;;2.30;;
21593;SDS011;10959;51.328;7.322;2023-12-22T00:06:07;7.10;;;2.10;;
21593;SDS011;10959;51.328;7.322;2023-12-22T00:08:36;8.07;;;1.80;;
21593;SDS011;10959;51.328;7.322;2023-12-22T00:11:05;6.00;;;1.83;;
21593;SDS011;10959;51.328;7.322;2023-12-22T00:13:34;7.87;;;1.63;;
21593;SDS011;10959;51.328;7.322;2023-12-22T00:16:03;7.43;;;2.17;;
21593;SDS011;10959;51.328;7.322;2023-12-22T00:18:30;5.03;;;1.63;;
21593;SDS011;10959;51.328;7.322;2023-12-22T00:20:59;5.83;;;1.87;;
21593;SDS011;10959;51.328;7.322;2023-12-22T00:23:28;6.57;;;1.80;;
21593;SDS011;10959;51.328;7.322;2023-12-22T00:25:57;8.13;;;1.80;;
21593;SDS011;10959;51.328;7.322;2023-12-22T00:28:26;8.53;;;1.80;;
21593;SDS011;10959;51.328;7.322;2023-12-22T00:30:52;6.73;;;2.23;;
21593;SDS011;10959;51.328;7.322;2023-12-22T00:33:21;6.80;;;2.00;;
21593;SDS011;10959;51.328;7.322;2023-12-22T00:35:51;6.93;;;1.73;;
21593;SDS011;10959;51.328;7.322;2023-12-22T00:38:20;9.57;;;1.80;;
21593;SDS011;10959;51.328;7.322;2023-12-22T00:40:47;6.37;;;1.83;;
21593;SDS011;10959;51.328;7.322;2023-12-22T00:43:15;7.27;;;2.20;;
21593;SDS011;10959;51.328;7.322;2023-12-22T00:45:44;6.67;;;1.80;;
21593;SDS011;10959;51.328;7.322;2023-12-22T00:48:13;5.10;;;1.30;;
21593;SDS011;10959;51.328;7.322;2023-12-22T00:50:43;7.87;;;1.70;;
21593;SDS011;10959;51.328;7.322;2023-12-22T00:53:12;7.17;;;1.97;;
21593;SDS011;10959;51.328;7.322;2023-12-22T00:55:40;11.00;;;2.20;;
21593;SDS011;10959;51.328;7.322;2023-12-22T00:58:12;6.20;;;1.60;;
21593;SDS011;10959;51.328;7.322;2023-12-22T01:00:40;6.80;;;2.10;;
21593;SDS011;10959;51.328;7.322;2023-12-22T01:03:09;12.57;;;2.20;;
21593;SDS011;10959;51.328;7.322;2023-12-22T01:05:37;8.57;;;1.87;;
21593;SDS011;10959;51.328;7.322;2023-12-22T01:08:08;8.17;;;1.57;;
21593;SDS011;10959;51.328;7.322;2023-12-22T01:10:35;4.63;;;2.00;;
21593;SDS011;10959;51.328;7.322;2023-12-22T01:13:04;7.67;;;1.80;;
21593;SDS011;10959;51.328;7.322;2023-12-22T01:15:32;6.20;;;1.87;;
21593;SDS011;10959;51.328;7.322;2023-12-22T01:18:04;4.90;;;1.43;;
21593;SDS011;10959;51.328;7.322;2023-12-22T01:20:31;8.97;;;1.97;;
21593;SDS011;10959;51.328;7.322;2023-12-22T01:23:00;5.13;;;1.70;;
21593;SDS011;10959;51.328;7.322;2023-12-22T01:27:58;7.07;;;2.00;;
21593;SDS011;10959;51.328;7.322;2023-12-22T01:30:25;7.73;;;2.23;;
21593;SDS011;10959;51.328;7.322;2023-12-22T01:32:52;7.07;;;1.93;;
21593;SDS011;10959;51.328;7.322;2023-12-22T01:35:21;12.30;;;2.03;;
21593;SDS011;10959;51.328;7.322;2023-12-22T01:37:48;9.90;;;2.40;;
21593;SDS011;10959;51.328;7.322;2023-12-22T01:40:15;4.20;;;1.40;;
21593;SDS011;10959;51.328;7.322;2023-12-22T01:42:44;5.73;;;1.10;;
21593;SDS011;10959;51.328;7.322;2023-12-22T01:45:13;4.33;;;1.27;;
21593;SDS011;10959;51.328;7.322;2023-12-22T01:47:42;3.00;;;1.27;;
21593;SDS011;10959;51.328;7.322;2023-12-22T01:52:43;2.70;;;1.03;;
21593;SDS011;10959;51.328;7.322;2023-12-22T01:55:16;4.13;;;0.80;;
21593;SDS011;10959;51.328;7.322;2023-12-22T01:57:51;4.07;;;0.93;;
21593;SDS011;10959;51.328;7.322;2023-12-22T02:00:19;2.70;;;0.83;;
21593;SDS011;10959;51.328;7.322;2023-12-22T02:02:51;2.50;;;0.90;;
21593;SDS011;10959;51.328;7.322;2023-12-22T02:07:49;3.43;;;0.90;;
21593;SDS011;10959;51.328;7.322;2023-12-22T02:10:21;4.23;;;1.03;;
21593;SDS011;10959;51.328;7.322;2023-12-22T02:12:51;4.10;;;0.90;;
21593;SDS011;10959;51.328;7.322;2023-12-22T02:15:20;4.60;;;1.20;;
21593;SDS011;10959;51.328;7.322;2023-12-22T02:17:48;3.30;;;0.90;;
21593;SDS011;10959;51.328;7.322;2023-12-22T02:20:19;3.33;;;0.97;;
21593;SDS011;10959;51.328;7.322;2023-12-22T02:22:52;4.60;;;0.87;;
21593;SDS011;10959;51.328;7.322;2023-12-22T02:25:18;4.83;;;1.10;;
21593;SDS011;10959;51.328;7.322;2023-12-22T02:27:47;2.63;;;0.73;;
21593;SDS011;10959;51.328;7.322;2023-12-22T02:30:17;3.97;;;1.13;;
21593;SDS011;10959;51.328;7.322;2023-12-22T02:32:51;4.57;;;1.20;;
21593;SDS011;10959;51.328;7.322;2023-12-22T02:35:23;6.50;;;1.57;;
21593;SDS011;10959;51.328;7.322;2023-12-22T02:37:52;7.93;;;1.53;;
21593;SDS011;10959;51.328;7.322;2023-12-22T02:40:22;6.53;;;1.70;;
21593;SDS011;10959;51.328;7.322;2023-12-22T02:42:51;6.20;;;1.43;;
21593;SDS011;10959;51.328;7.322;2023-12-22T02:45:18;4.73;;;1.70;;
21593;SDS011;10959;51.328;7.322;2023-12-22T02:47:46;6.33;;;1.60;;
21593;SDS011;10959;51.328;7.322;2023-12-22T02:50:13;4.80;;;1.70;;
21593;SDS011;10959;51.328;7.322;2023-12-22T02:52:41;3.83;;;1.40;;
21593;SDS011;10959;51.328;7.322;2023-12-22T02:55:09;3.60;;;1.20;;
21593;SDS011;10959;51.328;7.322;2023-12-22T02:57:36;5.03;;;1.77;;
21593;SDS011;10959;51.328;7.322;2023-12-22T03:00:03;8.37;;;1.53;;
21593;SDS011;10959;51.328;7.322;2023-12-22T03:02:30;5.23;;;1.30;;
21593;SDS011;10959;51.328;7.322;2023-12-22T03:04:57;6.70;;;1.87;;
21593;SDS011;10959;51.328;7.322;2023-12-22T03:07:23;5.63;;;1.97;;
21593;SDS011;10959;51.328;7.322;2023-12-22T03:09:50;9.77;;;2.37;;
21593;SDS011;10959;51.328;7.322;2023-12-22T03:12:17;8.13;;;2.43;;
21593;SDS011;10959;51.328;7.322;2023-12-22T03:14:44;6.43;;;1.93;;
21593;SDS011;10959;51.328;7.322;2023-12-22T03:17:11;6.47;;;1.80;;
21593;SDS011;10959;51.328;7.322;2023-12-22T03:19:37;5.90;;;1.73;;
21593;SDS011;10959;51.328;7.322;2023-12-22T03:22:05;5.67;;;1.90;;
21593;SDS011;10959;51.328;7.322;2023-12-22T03:24:31;4.97;;;1.80;;
21593;SDS011;10959;51.328;7.322;2023-12-22T03:26:58;11.80;;;2.13;;
21593;SDS011;10959;51.328;7.322;2023-12-22T03:29:26;5.30;;;1.97;;
21593;SDS011;10959;51.328;7.322;2023-12-22T03:31:53;3.60;;;1.80;;
21593;SDS011;10959;51.328;7.322;2023-12-22T03:34:19;6.57;;;2.20;;
21593;SDS011;10959;51.328;7.322;2023-12-22T03:36:45;8.37;;;1.80;;
21593;SDS011;10959;51.328;7.322;2023-12-22T03:39:13;8.10;;;2.00;;
21593;SDS011;10959;51.328;7.322;2023-12-22T03:41:40;6.17;;;1.77;;
21593;SDS011;10959;51.328;7.322;2023-12-22T03:44:07;9.27;;;1.60;;
21593;SDS011;10959;51.328;7.322;2023-12-22T03:46:35;5.60;;;1.90;;
21593;SDS011;10959;51.328;7.322;2023-12-22T03:49:02;6.93;;;1.97;;
21593;SDS011;10959;51.328;7.322;2023-12-22T03:51:32;6.13;;;2.13;;
21593;SDS011;10959;51.328;7.322;2023-12-22T03:53:59;6.77;;;1.87;;
21593;SDS011;10959;51.328;7.322;2023-12-22T03:56:26;12.47;;;2.60;;
21593;SDS011;10959;51.328;7.322;2023-12-22T03:58:53;8.10;;;1.87;;
21593;SDS011;10959;51.328;7.322;2023-12-22T04:01:19;9.87;;;2.30;;
21593;SDS011;10959;51.328;7.322;2023-12-22T04:03:47;7.80;;;2.37;;
21593;SDS011;10959;51.328;7.322;2023-12-22T04:06:14;10.43;;;2.50;;
21593;SDS011;10959;51.328;7.322;2023-12-22T04:08:40;9.23;;;2.90;;
21593;SDS011;10959;51.328;7.322;2023-12-22T04:11:06;10.67;;;2.80;;
21593;SDS011;10959;51.328;7.322;2023-12-22T04:13:33;6.53;;;2.47;;
21593;SDS011;10959;51.328;7.322;2023-12-22T04:15:59;7.00;;;2.67;;
21593;SDS011;10959;51.328;7.322;2023-12-22T04:18:29;8.00;;;2.23;;
21593;SDS011;10959;51.328;7.322;2023-12-22T04:20:57;9.87;;;2.27;;
21593;SDS011;10959;51.328;7.322;2023-12-22T04:23:24;9.00;;;2.67;;
21593;SDS011;10959;51.328;7.322;2023-12-22T04:25:50;10.97;;;2.13;;
21593;SDS011;10959;51.328;7.322;2023-12-22T04:28:17;9.03;;;2.20;;
21593;SDS011;10959;51.328;7.322;2023-12-22T04:30:43;13.63;;;2.80;;
21593;SDS011;10959;51.328;7.322;2023-12-22T04:33:10;10.50;;;2.30;;
21593;SDS011;10959;51.328;7.322;2023-12-22T04:35:36;9.10;;;2.73;;
21593;SDS011;10959;51.328;7.322;2023-12-22T04:38:04;8.53;;;2.00;;
21593;SDS011;10959;51.328;7.322;2023-12-22T04:40:32;10.10;;;2.43;;
21593;SDS011;10959;51.328;7.322;2023-12-22T04:42:58;11.30;;;2.67;;
21593;SDS011;10959;51.328;7.322;2023-12-22T04:45:25;10.73;;;2.90;;
21593;SDS011;10959;51.328;7.322;2023-12-22T04:47:52;8.53;;;2.93;;
21593;SDS011;10959;51.328;7.322;2023-12-22T04:50:18;7.60;;;3.07;;
21593;SDS011;10959;51.328;7.322;2023-12-22T04:52:45;7.37;;;2.40;;
21593;SDS011;10959;51.328;7.322;2023-12-22T04:55:13;12.60;;;3.43;;
21593;SDS011;10959;51.328;7.322;2023-12-22T04:57:40;7.13;;;2.40;;
21593;SDS011;10959;51.328;7.322;2023-12-22T05:00:07;12.03;;;2.37;;
21593;SDS011;10959;51.328;7.322;2023-12-22T05:02:34;8.03;;;2.50;;
21593;SDS011;10959;51.328;7.322;2023-12-22T05:05:00;13.60;;;2.73;;
21593;SDS011;10959;51.328;7.322;2023-12-22T05:07:28;6.57;;;2.97;;
21593;SDS011;10959;51.328;7.322;2023-12-22T05:09:55;8.17;;;3.20;;
21593;SDS011;10959;51.328;7.322;2023-12-22T05:12:23;7.43;;;3.50;;
21593;SDS011;10959;51.328;7.322;2023-12-22T05:14:49;9.07;;;2.40;;
21593;SDS011;10959;51.328;7.322;2023-12-22T05:17:18;6.77;;;1.80;;
21593;SDS011;10959;51.328;7.322;2023-12-22T05:19:44;4.70;;;1.80;;
21593;SDS011;10959;51.328;7.322;2023-12-22T05:22:11;6.73;;;2.27;;
21593;SDS011;10959;51.328;7.322;2023-12-22T05:24:38;6.57;;;2.53;;
21593;SDS011;10959;51.328;7.322;2023-12-22T05:27:04;8.70;;;2.80;;
21593;SDS011;10959;51.328;7.322;2023-12-22T05:29:32;7.47;;;2.80;;
21593;SDS011;10959;51.328;7.322;2023-12-22T05:31:59;8.17;;;2.50;;
21593;SDS011;10959;51.328;7.322;2023-12-22T05:34:27;8.10;;;2.43;;
21593;SDS011;10959;51.328;7.322;2023-12-22T05:36:54;10.33;;;2.80;;
21593;SDS011;10959;51.328;7.322;2023-12-22T05:39:20;11.53;;;3.00;;
21593;SDS011;10959;51.328;7.322;2023-12-22T05:41:47;7.60;;;2.33;;
21593;SDS011;10959;51.328;7.322;2023-12-22T05:44:13;5.87;;;2.07;;
21593;SDS011;10959;51.328;7.322;2023-12-22T05:46:41;6.13;;;1.80;;
21593;SDS011;10959;51.328;7.322;2023-12-22T05:49:08;5.57;;;1.90;;
21593;SDS011;10959;51.328;7.322;2023-12-22T05:51:37;4.57;;;1.90;;
21593;SDS011;10959;51.328;7.322;2023-12-22T05:54:04;9.27;;;2.53;;
21593;SDS011;10959;51.328;7.322;2023-12-22T05:56:31;4.30;;;1.70;;
21593;SDS011;10959;51.328;7.322;2023-12-22T05:58:59;8.43;;;1.93;;
21593;SDS011;10959;51.328;7.322;2023-12-22T06:01:25;5.83;;;1.77;;
21593;SDS011;10959;51.328;7.322;2023-12-22T06:03:53;6.37;;;1.60;;
21593;SDS011;10959;51.328;7.322;2023-12-22T06:06:21;5.40;;;1.80;;
21593;SDS011;10959;51.328;7.322;2023-12-22T06:08:47;3.00;;;1.50;;
21593;SDS011;10959;51.328;7.322;2023-12-22T06:11:14;4.70;;;1.63;;
21593;SDS011;10959;51.328;7.322;2023-12-22T06:13:41;2.10;;;1.13;;
21593;SDS011;10959;51.328;7.322;2023-12-22T06:16:10;3.73;;;1.23;;
21593;SDS011;10959;51.328;7.322;2023-12-22T06:18:39;4.87;;;1.40;;
21593;SDS011;10959;51.328;7.322;2023-12-22T06:21:08;5.87;;;1.40;;
21593;SDS011;10959;51.328;7.322;2023-12-22T06:23:34;4.50;;;1.50;;
21593;SDS011;10959;51.328;7.322;2023-12-22T06:26:01;6.53;;;2.00;;
21593;SDS011;10959;51.328;7.322;2023-12-22T06:28:28;6.40;;;1.80;;
21593;SDS011;10959;51.328;7.322;2023-12-22T06:30:54;6.13;;;1.93;;
21593;SDS011;10959;51.328;7.322;2023-12-22T06:33:21;8.30;;;2.00;;
21593;SDS011;10959;51.328;7.322;2023-12-22T06:35:47;5.80;;;2.13;;
21593;SDS011;10959;51.328;7.322;2023-12-22T06:38:19;5.67;;;1.70;;
21593;SDS011;10959;51.328;7.322;2023-12-22T06:40:46;7.13;;;2.17;;
21593;SDS011;10959;51.328;7.322;2023-12-22T06:43:13;6.13;;;1.77;;
21593;SDS011;10959;51.328;7.322;2023-12-22T06:45:39;6.77;;;2.00;;
21593;SDS011;10959;51.328;7.322;2023-12-22T06:48:06;6.97;;;1.80;;
21593;SDS011;10959;51.328;7.322;2023-12-22T06:50:34;5.97;;;2.00;;
21593;SDS011;10959;51.328;7.322;2023-12-22T06:53:02;5.73;;;2.30;;
21593;SDS011;10959;51.328;7.322;2023-12-22T06:55:30;12.67;;;3.17;;
21593;SDS011;10959;51.328;7.322;2023-12-22T06:57:57;12.27;;;2.53;;
21593;SDS011;10959;51.328;7.322;2023-12-22T07:00:23;7.60;;;2.50;;
21593;SDS011;10959;51.328;7.322;2023-12-22T07:02:50;9.20;;;2.30;;
21593;SDS011;10959;51.328;7.322;2023-12-22T07:05:34;8.67;;;2.50;;
21593;SDS011;10959;51.328;7.322;2023-12-22T07:08:05;8.27;;;2.63;;
21593;SDS011;10959;51.328;7.322;2023-12-22T07:10:34;10.57;;;2.87;;
21593;SDS011;10959;51.328;7.322;2023-12-22T07:13:00;11.40;;;2.70;;
21593;SDS011;10959;51.328;7.322;2023-12-22T07:15:27;8.30;;;2.33;;
21593;SDS011;10959;51.328;7.322;2023-12-22T07:17:54;8.67;;;3.00;;
21593;SDS011;10959;51.328;7.322;2023-12-22T07:20:21;6.20;;;1.97;;
21593;SDS011;10959;51.328;7.322;2023-12-22T07:22:48;8.63;;;2.53;;
21593;SDS011;10959;51.328;7.322;2023-12-22T07:25:15;9.33;;;3.07;;
21593;SDS011;10959;51.328;7.322;2023-12-22T07:27:45;9.47;;;3.20;;
21593;SDS011;10959;51.328;7.322;2023-12-22T07:30:13;12.43;;;2.63;;
21593;SDS011;10959;51.328;7.322;2023-12-22T07:32:41;9.37;;;2.60;;
21593;SDS011;10959;51.328;7.322;2023-12-22T07:35:14;11.73;;;2.90;;
21593;SDS011;10959;51.328;7.322;2023-12-22T07:37:41;7.17;;;2.53;;
21593;SDS011;10959;51.328;7.322;2023-12-22T07:40:08;10.17;;;2.87;;
21593;SDS011;10959;51.328;7.322;2023-12-22T07:42:35;9.90;;;2.70;;
21593;SDS011;10959;51.328;7.322;2023-12-22T07:45:04;7.50;;;2.63;;
21593;SDS011;10959;51.328;7.322;2023-12-22T07:47:32;12.10;;;3.00;;
21593;SDS011;10959;51.328;7.322;2023-12-22T07:49:59;8.90;;;3.00;;
21593;SDS011;10959;51.328;7.322;2023-12-22T07:52:26;9.33;;;2.60;;
21593;SDS011;10959;51.328;7.322;2023-12-22T07:54:52;8.33;;;2.13;;
21593;SDS011;10959;51.328;7.322;2023-12-22T07:57:19;10.53;;;3.30;;
21593;SDS011;10959;51.328;7.322;2023-12-22T07:59:46;13.27;;;4.03;;
21593;SDS011;10959;51.328;7.322;2023-12-22T08:02:13;10.23;;;3.23;;
21593;SDS011;10959;51.328;7.322;2023-12-22T08:04:40;12.13;;;3.83;;
21593;SDS011;10959;51.328;7.322;2023-12-22T08:07:07;11.80;;;3.50;;
21593;SDS011;10959;51.328;7.322;2023-12-22T08:09:33;9.47;;;2.87;;
21593;SDS011;10959;51.328;7.322;2023-12-22T08:12:00;13.10;;;3.47;;
21593;SDS011;10959;51.328;7.322;2023-12-22T08:14:27;13.80;;;3.10;;
21593;SDS011;10959;51.328;7.322;2023-12-22T08:16:53;11.83;;;3.67;;
21593;SDS011;10959;51.328;7.322;2023-12-22T08:19:21;12.07;;;3.40;;
21593;SDS011;10959;51.328;7.322;2023-12-22T08:21:47;12.10;;;3.40;;
21593;SDS011;10959;51.328;7.322;2023-12-22T08:24:14;14.40;;;3.27;;
21593;SDS011;10959;51.328;7.322;2023-12-22T08:26:42;12.57;;;3.90;;
21593;SDS011;10959;51.328;7.322;2023-12-22T08:29:09;13.03;;;3.77;;
21593;SDS011;10959;51.328;7.322;2023-12-22T08:31:35;13.33;;;4.13;;
21593;SDS011;10959;51.328;7.322;2023-12-22T08:34:02;15.73;;;4.30;;
21593;SDS011;10959;51.328;7.322;2023-12-22T08:36:30;17.30;;;4.13;;
21593;SDS011;10959;51.328;7.322;2023-12-22T08:38:57;18.60;;;5.10;;
21593;SDS011;10959;51.328;7.322;2023-12-22T08:41:23;22.37;;;4.80;;
21593;SDS011;10959;51.328;7.322;2023-12-22T08:43:52;15.47;;;3.67;;
21593;SDS011;10959;51.328;7.322;2023-12-22T08:46:18;16.03;;;3.87;;
21593;SDS011;10959;51.328;7.322;2023-12-22T08:48:45;14.83;;;4.03;;
21593;SDS011;10959;51.328;7.322;2023-12-22T08:51:11;16.93;;;5.33;;
21593;SDS011;10959;51.328;7.322;2023-12-22T08:53:39;18.20;;;4.67;;
21593;SDS011;10959;51.328;7.322;2023-12-22T08:56:05;15.63;;;5.43;;
21593;SDS011;10959;51.328;7.322;2023-12-22T08:58:33;21.77;;;6.03;;
21593;SDS011;10959;51.328;7.322;2023-12-22T09:00:59;21.47;;;6.67;;
21593;SDS011;10959;51.328;7.322;2023-12-22T09:03:26;20.03;;;5.70;;
21593;SDS011;10959;51.328;7.322;2023-12-22T09:05:53;19.00;;;5.90;;
21593;SDS011;10959;51.328;7.322;2023-12-22T09:08:19;16.80;;;5.43;;
21593;SDS011;10959;51.328;7.322;2023-12-22T09:10:47;18.17;;;5.97;;
21593;SDS011;10959;51.328;7.322;2023-12-22T09:13:14;22.90;;;6.07;;
21593;SDS011;10959;51.328;7.322;2023-12-22T09:15:41;17.60;;;5.80;;
21593;SDS011;10959;51.328;7.322;2023-12-22T09:18:11;22.93;;;6.07;;
21593;SDS011;10959;51.328;7.322;2023-12-22T09:20:38;16.50;;;5.67;;
21593;SDS011;10959;51.328;7.322;2023-12-22T09:23:06;17.47;;;5.90;;
21593;SDS011;10959;51.328;7.322;2023-12-22T09:25:35;13.90;;;3.97;;
21593;SDS011;10959;51.328;7.322;2023-12-22T09:28:03;9.57;;;2.93;;
21593;SDS011;10959;51.328;7.322;2023-12-22T09:30:30;7.93;;;2.60;;
21593;SDS011;10959;51.328;7.322;2023-12-22T09:32:57;9.57;;;2.50;;
21593;SDS011;10959;51.328;7.322;2023-12-22T09:35:23;9.83;;;3.00;;
21593;SDS011;10959;51.328;7.322;2023-12-22T09:37:52;8.27;;;2.80;;
21593;SDS011;10959;51.328;7.322;2023-12-22T09:40:19;18.90;;;4.20;;
21593;SDS011;10959;51.328;7.322;2023-12-22T09:42:47;17.23;;;4.43;;
21593;SDS011;10959;51.328;7.322;2023-12-22T09:45:17;15.30;;;4.30;;
21593;SDS011;10959;51.328;7.322;2023-12-22T09:47:45;16.10;;;4.43;;
21593;SDS011;10959;51.328;7.322;2023-12-22T09:50:12;17.63;;;5.03;;
21593;SDS011;10959;51.328;7.322;2023-12-22T09:52:40;21.37;;;4.77;;
21593;SDS011;10959;51.328;7.322;2023-12-22T09:55:09;25.97;;;5.93;;
21593;SDS011;10959;51.328;7.322;2023-12-22T09:57:36;18.20;;;5.07;;
21593;SDS011;10959;51.328;7.322;2023-12-22T10:00:06;22.00;;;5.77;;
21593;SDS011;10959;51.328;7.322;2023-12-22T10:02:35;24.13;;;6.67;;
21593;SDS011;10959;51.328;7.322;2023-12-22T10:05:03;17.57;;;5.63;;
21593;SDS011;10959;51.328;7.322;2023-12-22T10:07:30;19.30;;;5.30;;
21593;SDS011;10959;51.328;7.322;2023-12-22T10:09:58;20.77;;;5.33;;
21593;SDS011;10959;51.328;7.322;2023-12-22T10:12:25;22.17;;;4.63;;
21593;SDS011;10959;51.328;7.322;2023-12-22T10:14:55;20.40;;;5.10;;
21593;SDS011;10959;51.328;7.322;2023-12-22T10:17:22;13.53;;;4.30;;
21593;SDS011;10959;51.328;7.322;2023-12-22T10:19:50;17.10;;;4.83;;
21593;SDS011;10959;51.328;7.322;2023-12-22T10:22:17;13.60;;;4.33;;
21593;SDS011;10959;51.328;7.322;2023-12-22T10:24:44;14.43;;;4.00;;
21593;SDS011;10959;51.328;7.322;2023-12-22T10:27:12;14.57;;;4.43;;
21593;SDS011;10959;51.328;7.322;2023-12-22T10:29:40;14.07;;;4.77;;
21593;SDS011;10959;51.328;7.322;2023-12-22T10:32:07;12.53;;;4.30;;
21593;SDS011;10959;51.328;7.322;2023-12-22T10:34:34;11.87;;;4.53;;
21593;SDS011;10959;51.328;7.322;2023-12-22T10:37:03;17.43;;;4.90;;
21593;SDS011;10959;51.328;7.322;2023-12-22T10:39:30;14.30;;;4.60;;
21593;SDS011;10959;51.328;7.322;2023-12-22T10:41:58;15.23;;;4.40;;
21593;SDS011;10959;51.328;7.322;2023-12-22T10:44:25;11.40;;;4.57;;
21593;SDS011;10959;51.328;7.322;2023-12-22T10:46:53;9.50;;;4.33;;
21593;SDS011;10959;51.328;7.322;2023-12-22T10:49:20;11.37;;;4.60;;
21593;SDS011;10959;51.328;7.322;2023-12-22T10:51:48;10.87;;;4.73;;
21593;SDS011;10959;51.328;7.322;2023-12-22T10:54:17;13.50;;;6.50;;
21593;SDS011;10959;51.328;7.322;2023-12-22T10:56:45;18.23;;;8.70;;
21593;SDS011;10959;51.328;7.322;2023-12-22T10:59:12;15.50;;;7.27;;
21593;SDS011;10959;51.328;7.322;2023-12-22T11:01:43;11.57;;;6.80;;
21593;SDS011;10959;51.328;7.322;2023-12-22T11:04:12;14.73;;;7.37;;
21593;SDS011;10959;51.328;7.322;2023-12-22T11:06:44;9.80;;;4.43;;
21593;SDS011;10959;51.328;7.322;2023-12-22T11:09:13;8.90;;;3.60;;
21593;SDS011;10959;51.328;7.322;2023-12-22T11:11:45;5.77;;;2.90;;
21593;SDS011;10959;51.328;7.322;2023-12-22T11:14:12;7.00;;;2.57;;
21593;SDS011;10959;51.328;7.322;2023-12-22T11:16:40;7.70;;;2.53;;
21593;SDS011;10959;51.328;7.322;2023-12-22T11:19:12;5.20;;;2.20;;
21593;SDS011;10959;51.328;7.322;2023-12-22T11:21:39;6.60;;;2.27;;
21593;SDS011;10959;51.328;7.322;2023-12-22T11:24:07;12.23;;;2.63;;
21593;SDS011;10959;51.328;7.322;2023-12-22T11:26:35;6.17;;;2.13;;
21593;SDS011;10959;51.328;7.322;2023-12-22T11:29:04;4.87;;;2.23;;
21593;SDS011;10959;51.328;7.322;2023-12-22T11:31:32;5.43;;;2.03;;
21593;SDS011;10959;51.328;7.322;2023-12-22T11:33:59;3.57;;;1.60;;
21593;SDS011;10959;51.328;7.322;2023-12-22T11:36:28;3.37;;;1.30;;
21593;SDS011;10959;51.328;7.322;2023-12-22T11:38:55;4.90;;;1.73;;
21593;SDS011;10959;51.328;7.322;2023-12-22T11:41:23;3.13;;;1.40;;
21593;SDS011;10959;51.328;7.322;2023-12-22T11:43:54;4.33;;;1.50;;
21593;SDS011;10959;51.328;7.322;2023-12-22T11:46:22;2.50;;;1.10;;
21593;SDS011;10959;51.328;7.322;2023-12-22T11:48:49;3.77;;;1.80;;
21593;SDS011;10959;51.328;7.322;2023-12-22T11:51:18;5.23;;;2.10;;
21593;SDS011;10959;51.328;7.322;2023-12-22T11:53:45;4.73;;;2.33;;
21593;SDS011;10959;51.328;7.322;2023-12-22T11:56:12;5.57;;;2.20;;
21593;SDS011;10959;51.328;7.322;2023-12-22T11:58:39;4.27;;;2.70;;
21593;SDS011;10959;51.328;7.322;2023-12-22T12:01:08;4.33;;;2.73;;
21593;SDS011;10959;51.328;7.322;2023-12-22T12:03:37;5.07;;;2.33;;
21593;SDS011;10959;51.328;7.322;2023-12-22T12:06:16;7.40;;;2.47;;
21593;SDS011;10959;51.328;7.322;2023-12-22T12:08:48;3.00;;;2.03;;
21593;SDS011;10959;51.328;7.322;2023-12-22T12:11:16;5.47;;;2.47;;
21593;SDS011;10959;51.328;7.322;2023-12-22T12:13:43;5.90;;;2.00;;
21593;SDS011;10959;51.328;7.322;2023-12-22T12:16:12;7.00;;;2.17;;
21593;SDS011;10959;51.328;7.322;2023-12-22T12:18:40;4.83;;;1.77;;
21593;SDS011;10959;51.328;7.322;2023-12-22T12:21:07;5.00;;;1.87;;
21593;SDS011;10959;51.328;7.322;2023-12-22T12:23:36;2.77;;;1.53;;
21593;SDS011;10959;51.328;7.322;2023-12-22T12:26:03;5.20;;;2.00;;
21593;SDS011;10959;51.328;7.322;2023-12-22T12:28:32;5.37;;;1.50;;
21593;SDS011;10959;51.328;7.322;2023-12-22T12:31:02;4.87;;;1.70;;
21593;SDS011;10959;51.328;7.322;2023-12-22T12:33:31;2.93;;;1.40;;
21593;SDS011;10959;51.328;7.322;2023-12-22T12:35:59;7.30;;;1.83;;
21593;SDS011;10959;51.328;7.322;2023-12-22T12:38:33;4.03;;;2.00;;
21593;SDS011;10959;51.328;7.322;2023-12-22T12:41:03;3.17;;;1.23;;
21593;SDS011;10959;51.328;7.322;2023-12-22T12:43:31;4.23;;;1.30;;
21593;SDS011;10959;51.328;7.322;2023-12-22T12:46:02;3.33;;;1.30;;
21593;SDS011;10959;51.328;7.322;2023-12-22T12:48:31;4.87;;;1.70;;
21593;SDS011;10959;51.328;7.322;2023-12-22T12:51:01;3.60;;;1.30;;
21593;SDS011;10959;51.328;7.322;2023-12-22T12:53:29;3.60;;;1.33;;
21593;SDS011;10959;51.328;7.322;2023-12-22T12:55:57;2.57;;;1.23;;
21593;SDS011;10959;51.328;7.322;2023-12-22T12:58:26;3.73;;;1.23;;
21593;SDS011;10959;51.328;7.322;2023-12-22T13:00:54;4.27;;;1.40;;
21593;SDS011;10959;51.328;7.322;2023-12-22T13:06:19;3.47;;;1.37;;
21593;SDS011;10959;51.328;7.322;2023-12-22T13:08:47;3.77;;;1.43;;
21593;SDS011;10959;51.328;7.322;2023-12-22T13:11:20;5.23;;;1.40;;
21593;SDS011;10959;51.328;7.322;2023-12-22T13:13:51;3.83;;;1.60;;
21593;SDS011;10959;51.328;7.322;2023-12-22T13:16:20;4.17;;;1.70;;
21593;SDS011;10959;51.328;7.322;2023-12-22T13:18:59;3.10;;;1.43;;
21593;SDS011;10959;51.328;7.322;2023-12-22T13:21:31;5.83;;;1.50;;
21593;SDS011;10959;51.328;7.322;2023-12-22T13:24:11;4.33;;;1.37;;
21593;SDS011;10959;51.328;7.322;2023-12-22T13:26:41;3.33;;;1.53;;
21593;SDS011;10959;51.328;7.322;2023-12-22T13:29:12;4.07;;;1.60;;
21593;SDS011;10959;51.328;7.322;2023-12-22T13:31:40;3.37;;;1.77;;
21593;SDS011;10959;51.328;7.322;2023-12-22T13:34:16;1.40;;;1.27;;
21593;SDS011;10959;51.328;7.322;2023-12-22T13:36:45;3.33;;;1.77;;
21593;SDS011;10959;51.328;7.322;2023-12-22T13:39:15;3.53;;;1.60;;
21593;SDS011;10959;51.328;7.322;2023-12-22T13:41:42;3.83;;;2.30;;
21593;SDS011;10959;51.328;7.322;2023-12-22T13:44:13;4.53;;;1.77;;
21593;SDS011;10959;51.328;7.322;2023-12-22T13:46:40;3.87;;;1.50;;
21593;SDS011;10959;51.328;7.322;2023-12-22T13:49:08;4.47;;;1.70;;
21593;SDS011;10959;51.328;7.322;2023-12-22T13:51:40;3.03;;;1.40;;
21593;SDS011;10959;51.328;7.322;2023-12-22T13:54:07;2.73;;;1.47;;
21593;SDS011;10959;51.328;7.322;2023-12-22T13:56:34;4.67;;;2.43;;
21593;SDS011;10959;51.328;7.322;2023-12-22T13:59:01;6.10;;;2.03;;
21593;SDS011;10959;51.328;7.322;2023-12-22T14:01:28;5.97;;;2.20;;
21593;SDS011;10959;51.328;7.322;2023-12-22T14:03:56;4.83;;;1.90;;
21593;SDS011;10959;51.328;7.322;2023-12-22T14:06:25;4.07;;;1.70;;
21593;SDS011;10959;51.328;7.322;2023-12-22T14:08:54;3.03;;;1.43;;
21593;SDS011;10959;51.328;7.322;2023-12-22T14:11:21;4.37;;;1.57;;
21593;SDS011;10959;51.328;7.322;2023-12-22T14:13:47;4.53;;;1.60;;
21593;SDS011;10959;51.328;7.322;2023-12-22T14:16:14;5.37;;;1.77;;
21593;SDS011;10959;51.328;7.322;2023-12-22T14:18:41;3.10;;;1.77;;
21593;SDS011;10959;51.328;7.322;2023-12-22T14:21:07;3.90;;;1.70;;
21593;SDS011;10959;51.328;7.322;2023-12-22T14:23:34;3.87;;;2.07;;
21593;SDS011;10959;51.328;7.322;2023-12-22T14:26:02;4.43;;;2.20;;
21593;SDS011;10959;51.328;7.322;2023-12-22T14:28:31;4.17;;;1.87;;
21593;SDS011;10959;51.328;7.322;2023-12-22T14:31:01;4.77;;;1.93;;
21593;SDS011;10959;51.328;7.322;2023-12-22T14:33:27;4.53;;;2.40;;
21593;SDS011;10959;51.328;7.322;2023-12-22T14:35:59;5.37;;;2.30;;
21593;SDS011;10959;51.328;7.322;2023-12-22T14:38:25;7.40;;;2.50;;
21593;SDS011;10959;51.328;7.322;2023-12-22T14:40:53;5.43;;;2.43;;
21593;SDS011;10959;51.328;7.322;2023-12-22T14:43:21;3.47;;;1.60;;
21593;SDS011;10959;51.328;7.322;2023-12-22T14:45:48;4.77;;;2.03;;
21593;SDS011;10959;51.328;7.322;2023-12-22T14:48:14;6.07;;;1.80;;
21593;SDS011;10959;51.328;7.322;2023-12-22T14:50:41;3.40;;;1.73;;
21593;SDS011;10959;51.328;7.322;2023-12-22T14:53:07;4.07;;;2.00;;
21593;SDS011;10959;51.328;7.322;2023-12-22T14:55:34;6.97;;;2.53;;
21593;SDS011;10959;51.328;7.322;2023-12-22T14:58:00;2.80;;;1.43;;